Time;durP1;ratioP1;P1;durP2;ratioP2;P2;SDS_P1;SDS_P2;PMS_P1;PMS_P2;Temp;Humidity;BMP_temperature;BMP_pressure;BME280_temperature;BME280_humidity;BME280_pressure;Samples;Min_cycle;Max_cycle;Signal;HPM_P1;HPM_P2
2024/01/14 00:01:33;;;;;;;15.63;6.85;;;;;;;4.32;100.00;101343.88;5043419;28;20053;-52
2024/01/14 00:04:01;;;;;;;13.02;7.07;;;;;;;4.31;100.00;101339.47;5039792;28;20124;-50
2024/01/14 00:06:28;;;;;;;15.75;7.65;;;;;;;4.31;100.00;101334.00;5030799;28;20045;-48
2024/01/14 00:08:58;;;;;;;11.82;6.68;;;;;;;4.30;100.00;101335.13;5032619;28;20530;-53
2024/01/14 00:11:26;;;;;;;8.15;5.13;;;;;;;4.30;100.00;101335.13;5042718;28;20041;-51
2024/01/14 00:13:53;;;;;;;8.45;5.22;;;;;;;4.31;100.00;101330.47;5036176;28;20584;-53
2024/01/14 00:16:20;;;;;;;7.70;4.32;;;;;;;4.30;100.00;101323.34;5044006;28;20474;-50
2024/01/14 00:18:48;;;;;;;10.40;5.38;;;;;;;4.30;100.00;101321.41;5042643;28;20045;-52
2024/01/14 00:21:19;;;;;;;10.95;4.63;;;;;;;4.29;100.00;101321.69;5045063;28;20063;-51
2024/01/14 00:23:50;;;;;;;7.47;4.68;;;;;;;4.28;100.00;101309.94;5039876;28;20068;-52
2024/01/14 00:26:18;;;;;;;7.25;4.40;;;;;;;4.27;100.00;101313.75;5044025;28;20048;-52
2024/01/14 00:28:54;;;;;;;10.35;4.07;;;;;;;4.28;100.00;101309.94;5040113;28;20049;-52
2024/01/14 00:31:21;;;;;;;8.32;4.00;;;;;;;4.29;100.00;101311.56;5044529;28;20370;-49
2024/01/14 00:33:50;;;;;;;7.93;4.97;;;;;;;4.31;100.00;101298.38;5045790;28;20047;-53
2024/01/14 00:36:17;;;;;;;10.45;4.32;;;;;;;4.32;100.00;101304.66;5043227;28;20045;-51
2024/01/14 00:38:45;;;;;;;9.07;5.07;;;;;;;4.32;100.00;101300.00;5039386;28;20049;-51
2024/01/14 00:41:15;;;;;;;6.82;4.30;;;;;;;4.30;100.00;101291.25;5046890;28;20102;-51
2024/01/14 00:43:43;;;;;;;8.93;4.28;;;;;;;4.31;100.00;101292.88;5045627;28;20063;-46
2024/01/14 00:46:12;;;;;;;13.27;7.03;;;;;;;4.30;100.00;101284.97;5021462;28;20044;-46
2024/01/14 00:48:41;;;;;;;11.02;4.63;;;;;;;4.29;100.00;101284.13;5047423;28;20037;-50
2024/01/14 00:51:08;;;;;;;8.20;4.35;;;;;;;4.30;100.00;101279.47;5047047;28;20422;-49
2024/01/14 00:53:36;;;;;;;7.20;4.43;;;;;;;4.27;100.00;101272.66;5046377;28;20068;-52
2024/01/14 00:56:04;;;;;;;7.00;4.55;;;;;;;4.26;100.00;101279.22;5047656;28;20056;-46
2024/01/14 00:58:31;;;;;;;13.20;4.32;;;;;;;4.24;100.00;101270.50;5046506;28;20388;-47
2024/01/14 01:00:59;;;;;;;7.35;4.15;;;;;;;4.24;100.00;101264.19;5045067;28;20053;-51
2024/01/14 01:03:26;;;;;;;11.25;4.57;;;;;;;4.23;100.00;101265.31;5035612;28;20052;-50
2024/01/14 01:05:54;;;;;;;8.88;4.40;;;;;;;4.22;100.00;101261.75;5046767;28;20052;-51
2024/01/14 01:08:22;;;;;;;8.43;4.20;;;;;;;4.23;100.00;101257.91;5037921;28;20052;-50
2024/01/14 01:10:50;;;;;;;11.75;5.28;;;;;;;4.25;100.00;101265.84;5025538;28;20538;-46
2024/01/14 01:13:19;;;;;;;7.85;4.47;;;;;;;4.22;100.00;101250.78;5047042;28;20499;-50
2024/01/14 01:15:46;;;;;;;9.20;4.78;;;;;;;4.23;100.00;101252.44;5032804;28;20483;-46
2024/01/14 01:18:13;;;;;;;14.77;6.10;;;;;;;4.25;100.00;101249.38;5036334;28;20515;-51
2024/01/14 01:20:41;;;;;;;8.73;4.38;;;;;;;4.24;100.00;101248.56;5043796;28;20049;-48
2024/01/14 01:23:08;;;;;;;6.63;3.88;;;;;;;4.22;100.00;101245.31;5047275;28;20088;-50
2024/01/14 01:25:36;;;;;;;8.07;4.45;;;;;;;4.21;100.00;101240.09;5047544;28;20049;-48
2024/01/14 01:28:04;;;;;;;8.82;4.60;;;;;;;4.19;100.00;101240.41;5047496;28;20057;-51
2024/01/14 01:30:31;;;;;;;8.57;5.00;;;;;;;4.20;100.00;101241.22;5046503;28;20073;-53
2024/01/14 01:32:59;;;;;;;7.90;4.95;;;;;;;4.17;100.00;101242.63;5046552;28;20051;-45
2024/01/14 01:35:27;;;;;;;9.68;4.38;;;;;;;4.18;100.00;101235.22;5046260;28;20064;-52
2024/01/14 01:37:54;;;;;;;8.07;4.22;;;;;;;4.17;100.00;101234.41;5046453;28;20792;-47
2024/01/14 01:40:22;;;;;;;7.93;4.38;;;;;;;4.17;100.00;101219.88;5047446;28;20048;-52
2024/01/14 01:42:49;;;;;;;7.32;3.78;;;;;;;4.17;100.00;101234.41;5047420;28;20411;-52
2024/01/14 01:45:17;;;;;;;8.25;4.20;;;;;;;4.18;100.00;101218.78;5043390;28;20046;-48
2024/01/14 01:47:44;;;;;;;6.22;3.80;;;;;;;4.18;100.00;101222.31;5036673;28;20054;-51
2024/01/14 01:50:12;;;;;;;11.43;4.72;;;;;;;4.18;100.00;101216.84;5051023;28;20037;-52
2024/01/14 01:52:40;;;;;;;9.27;4.05;;;;;;;4.18;100.00;101210.56;5047717;28;20060;-47
2024/01/14 01:55:10;;;;;;;5.20;3.70;;;;;;;4.15;100.00;101211.97;5050347;28;20119;-49
2024/01/14 01:57:38;;;;;;;9.68;3.92;;;;;;;4.12;100.00;101211.72;5039137;28;20041;-51
2024/01/14 02:00:10;;;;;;;5.65;3.20;;;;;;;4.12;100.00;101212.53;5041752;28;20048;-46
2024/01/14 02:02:41;;;;;;;3.28;2.53;;;;;;;4.08;100.00;101206.00;5046173;28;20045;-52
2024/01/14 02:05:10;;;;;;;5.45;2.67;;;;;;;4.02;100.00;101201.69;5039079;28;20442;-49
2024/01/14 02:07:39;;;;;;;6.43;3.22;;;;;;;3.97;100.00;101198.19;5046088;28;20119;-53
2024/01/14 02:10:06;;;;;;;7.55;3.22;;;;;;;3.90;100.00;101198.53;5047977;28;20075;-52
2024/01/14 02:12:34;;;;;;;10.43;3.80;;;;;;;3.82;100.00;101210.09;5046704;28;20065;-51
2024/01/14 02:15:01;;;;;;;6.22;3.90;;;;;;;3.79;100.00;101196.16;5049744;28;20436;-51
2024/01/14 02:17:29;;;;;;;8.93;3.05;;;;;;;3.78;100.00;101195.38;5027676;28;20053;-51
2024/01/14 02:19:56;;;;;;;6.93;3.13;;;;;;;3.78;100.00;101198.13;5043677;28;20052;-53
2024/01/14 02:22:29;;;;;;;4.55;2.97;;;;;;;3.78;100.00;101195.38;5048855;28;20045;-48
2024/01/14 02:24:57;;;;;;;8.77;3.72;;;;;;;3.76;100.00;101188.56;5048791;28;20048;-51
2024/01/14 02:27:24;;;;;;;7.13;3.70;;;;;;;3.77;100.00;101187.44;5044302;28;20046;-48
2024/01/14 02:29:54;;;;;;;8.20;3.33;;;;;;;3.74;100.00;101188.00;5025130;28;20057;-48
2024/01/14 02:32:21;;;;;;;7.15;3.38;;;;;;;3.73;100.00;101187.22;5048358;28;20048;-49
2024/01/14 02:34:49;;;;;;;8.43;3.90;;;;;;;3.75;100.00;101187.72;5048521;28;20041;-53
2024/01/14 02:37:16;;;;;;;8.75;5.00;;;;;;;3.77;100.00;101180.03;5049235;28;20679;-54
2024/01/14 02:39:44;;;;;;;14.00;5.80;;;;;;;3.78;100.00;101178.94;5049210;28;20396;-48
2024/01/14 02:42:11;;;;;;;9.20;5.03;;;;;;;3.78;100.00;101184.44;5049082;28;20057;-51
2024/01/14 02:44:39;;;;;;;13.80;6.50;;;;;;;3.78;100.00;101178.94;5047809;28;20053;-48
2024/01/14 02:47:06;;;;;;;13.93;6.47;;;;;;;3.79;100.00;101168.78;5049012;28;20041;-51
2024/01/14 02:49:36;;;;;;;12.15;5.45;;;;;;;3.81;100.00;101178.38;5048539;28;20061;-48
2024/01/14 02:52:03;;;;;;;10.10;6.20;;;;;;;3.80;100.00;101176.72;5047849;28;20048;-48
2024/01/14 02:54:31;;;;;;;11.77;6.05;;;;;;;3.79;100.00;101183.28;5048192;28;20045;-48
2024/01/14 02:56:58;;;;;;;10.27;4.70;;;;;;;3.80;100.00;101171.25;5048892;28;20057;-47
2024/01/14 02:59:27;;;;;;;10.65;4.90;;;;;;;3.80;100.00;101176.72;5047494;28;20407;-49
2024/01/14 03:01:54;;;;;;;10.48;5.18;;;;;;;3.81;100.00;101178.38;5048225;28;20052;-50
2024/01/14 03:04:22;;;;;;;11.27;4.93;;;;;;;3.78;100.00;101162.50;5026832;28;20064;-48
2024/01/14 03:06:50;;;;;;;7.88;5.00;;;;;;;3.76;100.00;101164.69;5048240;28;20673;-51
2024/01/14 03:09:17;;;;;;;8.45;5.45;;;;;;;3.75;100.00;101152.13;5029376;28;20075;-51
2024/01/14 03:11:44;;;;;;;6.25;4.18;;;;;;;3.73;100.00;101148.88;5035006;28;20459;-46
2024/01/14 03:14:12;;;;;;;7.47;3.78;;;;;;;3.71;100.00;101145.59;5048020;28;20044;-48
2024/01/14 03:16:39;;;;;;;6.70;3.88;;;;;;;3.72;100.00;101135.47;5047901;28;20048;-48
2024/01/14 03:19:06;;;;;;;9.40;4.38;;;;;;;3.68;100.00;101137.94;5041956;28;20053;-51
2024/01/14 03:21:34;;;;;;;6.80;4.07;;;;;;;3.66;100.00;101143.72;5038986;28;20053;-50
2024/01/14 03:24:01;;;;;;;4.90;3.15;;;;;;;3.60;100.00;101144.88;5040204;28;20724;-47
2024/01/14 03:26:28;;;;;;;5.38;3.05;;;;;;;3.56;100.00;101129.31;5026941;28;20045;-53
2024/01/14 03:28:56;;;;;;;5.80;2.88;;;;;;;3.54;100.00;101126.06;5047571;28;20136;-49
2024/01/14 03:31:24;;;;;;;8.15;3.53;;;;;;;3.51;100.00;101132.13;5047507;28;20049;-53
2024/01/14 03:33:51;;;;;;;7.95;3.72;;;;;;;3.44;100.00;101123.44;5047797;28;20059;-46
2024/01/14 03:36:19;;;;;;;5.70;3.53;;;;;;;3.41;100.00;101129.50;5047784;28;20419;-51
2024/01/14 03:38:46;;;;;;;7.07;4.90;;;;;;;3.37;100.00;101133.88;5046600;28;20112;-49
2024/01/14 03:41:13;;;;;;;7.57;3.30;;;;;;;3.35;100.00;101125.16;5047010;28;20048;-48
2024/01/14 03:43:41;;;;;;;9.30;4.25;;;;;;;3.37;100.00;101122.94;5047497;28;20056;-51
2024/01/14 03:46:08;;;;;;;7.15;3.13;;;;;;;3.38;100.00;101119.94;5047830;28;20407;-51
2024/01/14 03:48:37;;;;;;;8.82;4.28;;;;;;;3.40;100.00;101122.38;5045664;28;20045;-50
2024/01/14 03:51:04;;;;;;;6.80;4.45;;;;;;;3.43;100.00;101116.31;5047326;28;20068;-52
2024/01/14 03:53:32;;;;;;;10.82;5.13;;;;;;;3.45;100.00;101119.59;5047738;28;20041;-48
2024/01/14 03:55:59;;;;;;;7.80;4.07;;;;;;;3.47;100.00;101117.38;5047160;28;20395;-53
2024/01/14 03:58:27;;;;;;;7.50;4.72;;;;;;;3.50;100.00;101111.31;5046864;28;20048;-51
2024/01/14 04:00:54;;;;;;;10.27;4.65;;;;;;;3.50;100.00;101112.13;5047375;28;20049;-50
2024/01/14 04:03:23;;;;;;;7.13;3.00;;;;;;;3.52;100.00;101106.41;5045398;28;20041;-53
2024/01/14 04:05:50;;;;;;;4.95;2.95;;;;;;;3.52;100.00;101104.44;5036902;28;20148;-50
2024/01/14 04:08:17;;;;;;;5.75;3.28;;;;;;;3.56;100.00;101104.69;5046984;28;20562;-49
2024/01/14 04:10:45;;;;;;;5.93;2.65;;;;;;;3.56;100.00;101099.22;5043386;28;20061;-48
2024/01/14 04:13:13;;;;;;;5.40;2.60;;;;;;;3.59;100.00;101104.13;5036755;28;20056;-50
2024/01/14 04:15:40;;;;;;;8.85;3.17;;;;;;;3.60;100.00;101103.03;5046739;28;20495;-50
2024/01/14 04:18:07;;;;;;;4.65;2.17;;;;;;;3.60;100.00;101103.03;5040108;28;20072;-46
2024/01/14 04:20:36;;;;;;;6.68;2.75;;;;;;;3.62;100.00;101104.38;5043788;28;20060;-50
2024/01/14 04:23:03;;;;;;;4.85;3.05;;;;;;;3.61;100.00;101096.44;5046914;28;20407;-53
2024/01/14 04:25:30;;;;;;;4.80;3.05;;;;;;;3.61;100.00;101096.44;5046619;28;20048;-50
2024/01/14 04:28:02;;;;;;;7.18;2.78;;;;;;;3.62;100.00;101100.81;5043345;28;20049;-48
2024/01/14 04:30:29;;;;;;;7.35;3.95;;;;;;;3.64;100.00;101101.31;5042547;28;20045;-48
2024/01/14 04:32:58;;;;;;;5.68;2.58;;;;;;;3.65;100.00;101097.50;5038723;28;20410;-51
2024/01/14 04:35:25;;;;;;;6.15;3.00;;;;;;;3.65;100.00;101092.00;5046916;28;20403;-49
2024/01/14 04:37:56;;;;;;;7.40;3.22;;;;;;;3.64;100.00;101098.59;5047206;28;20037;-47
2024/01/14 04:40:25;;;;;;;5.35;3.13;;;;;;;3.66;100.00;101082.69;5029380;28;20045;-48
2024/01/14 04:42:52;;;;;;;6.38;2.30;;;;;;;3.65;100.00;101076.38;5046075;28;20761;-53
2024/01/14 04:45:20;;;;;;;5.47;2.58;;;;;;;3.66;100.00;101078.03;5027298;28;20048;-49
2024/01/14 04:47:47;;;;;;;8.50;2.90;;;;;;;3.64;100.00;101079.41;5019421;28;20411;-51
2024/01/14 04:50:15;;;;;;;10.73;3.65;;;;;;;3.64;100.00;101079.41;5039151;28;20056;-51
2024/01/14 04:52:42;;;;;;;6.07;2.25;;;;;;;3.63;100.00;101072.31;5041756;28;20045;-53
2024/01/14 04:55:10;;;;;;;4.63;2.20;;;;;;;3.61;100.00;101074.53;5046309;28;20145;-46
2024/01/14 04:57:37;;;;;;;7.13;2.50;;;;;;;3.57;100.00;101068.81;5045921;28;20084;-51
2024/01/14 05:00:05;;;;;;;7.55;3.85;;;;;;;3.57;100.00;101068.00;5046575;28;20495;-47
2024/01/14 05:02:32;;;;;;;6.43;3.20;;;;;;;3.54;100.00;101063.13;5046243;28;20064;-50
2024/01/14 05:05:01;;;;;;;6.88;3.00;;;;;;;3.52;100.00;101070.81;5046379;28;20140;-53
2024/01/14 05:07:28;;;;;;;7.25;2.63;;;;;;;3.50;100.00;101060.13;5046167;28;20049;-50
2024/01/14 05:09:55;;;;;;;6.93;3.05;;;;;;;3.48;100.00;101064.25;5045648;28;20419;-51
2024/01/14 05:12:23;;;;;;;7.55;3.38;;;;;;;3.47;100.00;101057.97;5040921;28;20060;-49
2024/01/14 05:14:50;;;;;;;5.05;3.00;;;;;;;3.49;100.00;101054.97;5046153;28;20049;-48
2024/01/14 05:17:17;;;;;;;7.32;2.90;;;;;;;3.46;100.00;101044.59;5050236;28;20048;-49
2024/01/14 05:19:47;;;;;;;8.35;2.45;;;;;;;3.42;100.00;101059.94;5050351;28;20043;-49
2024/01/14 05:22:14;;;;;;;8.30;2.65;;;;;;;3.38;100.00;101053.44;5050434;28;20049;-48
2024/01/14 05:24:42;;;;;;;4.63;2.88;;;;;;;3.36;100.00;101044.72;5049889;28;20053;-46
2024/01/14 05:27:11;;;;;;;7.85;3.53;;;;;;;3.35;100.00;101048.53;5049790;28;20600;-50
2024/01/14 05:29:42;;;;;;;5.75;3.22;;;;;;;3.33;100.00;101056.22;5049666;28;20426;-48
2024/01/14 05:32:12;;;;;;;8.48;3.40;;;;;;;3.30;100.00;101045.84;5049583;28;20450;-48
2024/01/14 05:34:44;;;;;;;5.00;3.05;;;;;;;3.29;100.00;101041.47;5049764;28;20057;-52
2024/01/14 05:37:12;;;;;;;6.35;3.28;;;;;;;3.26;100.00;101048.34;5050334;28;20332;-48
2024/01/14 05:39:39;;;;;;;6.65;3.10;;;;;;;3.25;100.00;101038.53;5049924;28;20045;-50
2024/01/14 05:42:07;;;;;;;3.53;2.95;;;;;;;3.24;100.00;101039.63;5020402;28;20041;-49
2024/01/14 05:44:34;;;;;;;6.30;3.30;;;;;;;3.23;100.00;101037.97;5047088;28;20052;-52
2024/01/14 05:47:02;;;;;;;9.00;4.00;;;;;;;3.19;100.00;101036.94;5038454;28;20041;-48
2024/01/14 05:49:29;;;;;;;6.45;4.63;;;;;;;3.14;100.00;101031.53;5049390;28;20078;-51
2024/01/14 05:51:56;;;;;;;7.47;3.83;;;;;;;3.11;100.00;101025.81;5049316;28;20053;-52
2024/01/14 05:54:24;;;;;;;6.60;4.00;;;;;;;3.06;100.00;101018.47;5031776;28;20060;-49
2024/01/14 05:56:51;;;;;;;6.85;3.60;;;;;;;3.00;100.00;101020.44;5043252;28;20534;-47
2024/01/14 05:59:19;;;;;;;8.75;4.50;;;;;;;2.96;100.00;101024.88;5049070;28;20478;-50
2024/01/14 06:01:46;;;;;;;8.50;4.03;;;;;;;2.90;100.00;101014.25;5049607;28;20171;-53
2024/01/14 06:04:13;;;;;;;7.57;4.03;;;;;;;2.86;100.00;101027.66;5038706;28;20069;-51
2024/01/14 06:06:41;;;;;;;6.50;3.92;;;;;;;2.79;100.00;101021.72;5049072;28;20052;-47
2024/01/14 06:09:08;;;;;;;8.98;3.72;;;;;;;2.76;100.00;101025.03;5045581;28;20053;-46
2024/01/14 06:11:39;;;;;;;6.82;3.30;;;;;;;2.73;100.00;101019.31;5039412;28;20431;-51
2024/01/14 06:14:07;;;;;;;7.90;3.40;;;;;;;2.69;100.00;101010.88;5049081;28;20045;-47
2024/01/14 06:16:38;;;;;;;6.82;3.88;;;;;;;2.64;100.00;101010.94;5048358;28;20049;-48
2024/01/14 06:19:06;;;;;;;8.03;3.10;;;;;;;2.63;100.00;101009.28;5045487;28;20045;-49
2024/01/14 06:21:39;;;;;;;5.40;3.30;;;;;;;2.61;100.00;101016.97;5046311;28;20068;-48
2024/01/14 06:24:06;;;;;;;6.07;3.33;;;;;;;2.57;100.00;101015.88;5048525;28;20049;-52
2024/01/14 06:26:34;;;;;;;6.45;3.05;;;;;;;2.53;100.00;101009.38;5049578;28;20064;-47
2024/01/14 06:29:02;;;;;;;5.30;3.22;;;;;;;2.52;100.00;101010.47;5048773;28;20067;-49
2024/01/14 06:31:29;;;;;;;5.78;2.88;;;;;;;2.50;100.00;101012.66;5048919;28;20391;-49
2024/01/14 06:33:57;;;;;;;5.75;3.13;;;;;;;2.47;100.00;100997.66;5048765;28;20045;-52
2024/01/14 06:36:24;;;;;;;5.88;3.13;;;;;;;2.45;100.00;101001.78;5048515;28;20079;-53
2024/01/14 06:38:51;;;;;;;7.15;3.42;;;;;;;2.42;100.00;100999.63;5029773;28;20041;-48
2024/01/14 06:41:20;;;;;;;4.22;3.28;;;;;;;2.40;100.00;101005.38;5048752;28;20060;-51
2024/01/14 06:43:47;;;;;;;6.28;3.17;;;;;;;2.40;100.00;100999.91;5048233;28;20045;-49
2024/01/14 06:46:16;;;;;;;5.57;3.00;;;;;;;2.39;100.00;100998.28;5048955;28;20061;-50
2024/01/14 06:48:43;;;;;;;3.75;2.40;;;;;;;2.38;100.00;100998.56;5043812;28;20057;-50
2024/01/14 06:51:10;;;;;;;9.57;2.95;;;;;;;2.37;100.00;100996.94;5046525;28;20041;-52
2024/01/14 06:53:38;;;;;;;3.88;3.00;;;;;;;2.35;100.00;100988.22;5048700;28;20059;-48
2024/01/14 06:56:05;;;;;;;8.25;3.00;;;;;;;2.34;100.00;100995.56;5048547;28;20060;-50
2024/01/14 06:58:33;;;;;;;9.55;3.60;;;;;;;2.35;100.00;100996.41;5048496;28;20052;-53
2024/01/14 07:01:03;;;;;;;7.10;3.42;;;;;;;2.32;100.00;100996.97;5048155;28;20418;-52
2024/01/14 07:03:32;;;;;;;5.32;2.70;;;;;;;2.30;100.00;100986.31;5047026;28;20045;-52
2024/01/14 07:05:59;;;;;;;6.45;3.53;;;;;;;2.30;100.00;100989.03;5048347;28;20063;-52
2024/01/14 07:08:27;;;;;;;6.10;2.80;;;;;;;2.28;100.00;100985.78;5048006;28;20041;-51
2024/01/14 07:10:54;;;;;;;5.38;2.60;;;;;;;2.27;100.00;100972.41;5036715;28;20784;-48
2024/01/14 07:13:22;;;;;;;6.55;3.47;;;;;;;2.27;100.00;100983.34;5047893;28;20068;-53
2024/01/14 07:15:49;;;;;;;6.10;4.05;;;;;;;2.31;100.00;100973.47;5047564;28;20060;-48
2024/01/14 07:18:17;;;;;;;5.25;2.88;;;;;;;2.30;100.00;100977.31;5047501;28;20041;-52
2024/01/14 07:20:44;;;;;;;6.05;4.15;;;;;;;2.31;100.00;100976.19;5046104;28;20041;-48
2024/01/14 07:23:13;;;;;;;7.60;2.83;;;;;;;2.29;100.00;100971.03;5041427;28;20041;-49
2024/01/14 07:26:00;;;;;;;6.72;2.97;;;;;;;2.27;100.00;100967.78;5047789;28;20064;-48
2024/01/14 07:28:28;;;;;;;4.75;3.20;;;;;;;2.25;100.00;100966.44;5035223;28;20057;-49
2024/01/14 07:30:55;;;;;;;4.78;3.17;;;;;;;2.21;100.00;100973.56;5047028;28;20045;-50
2024/01/14 07:33:22;;;;;;;5.40;3.28;;;;;;;2.13;100.00;100960.50;5047908;28;20052;-51
2024/01/14 07:35:50;;;;;;;8.93;3.50;;;;;;;2.08;100.00;100971.47;5047196;28;20080;-51
2024/01/14 07:38:18;;;;;;;5.65;2.95;;;;;;;2.04;100.00;100963.00;5046863;28;20045;-51
2024/01/14 07:40:45;;;;;;;6.32;3.33;;;;;;;2.01;100.00;100966.34;5047894;28;21146;-48
2024/01/14 07:43:12;;;;;;;8.80;3.38;;;;;;;2.00;100.00;100972.88;5048042;28;20052;-48
2024/01/14 07:45:40;;;;;;;4.85;3.58;;;;;;;1.98;100.00;100971.53;5048026;28;20578;-50
2024/01/14 07:48:07;;;;;;;6.75;3.38;;;;;;;1.96;100.00;100976.47;5044000;28;20063;-50
2024/01/14 07:50:36;;;;;;;7.68;3.88;;;;;;;1.93;100.00;100961.47;5047610;28;20067;-50
2024/01/14 07:53:03;;;;;;;8.27;5.45;;;;;;;1.90;100.00;100972.13;5033648;28;20045;-49
2024/01/14 07:55:30;;;;;;;11.35;4.18;;;;;;;1.86;100.00;100977.31;5042838;28;20048;-48
2024/01/14 07:57:58;;;;;;;6.63;4.00;;;;;;;1.81;100.00;100975.44;5047407;28;20565;-48
2024/01/14 08:00:25;;;;;;;8.43;5.28;;;;;;;1.80;100.00;100978.47;5029259;28;20503;-49
2024/01/14 08:02:53;;;;;;;10.57;3.80;;;;;;;1.78;100.00;100973.28;5028686;28;20045;-50
2024/01/14 08:05:20;;;;;;;7.35;4.32;;;;;;;1.76;100.00;100989.13;5046883;28;20402;-49
2024/01/14 08:07:47;;;;;;;7.68;4.20;;;;;;;1.72;100.00;100989.97;5045897;28;20192;-51
2024/01/14 08:10:15;;;;;;;7.22;4.50;;;;;;;1.71;100.00;100982.88;5045746;28;20060;-48
2024/01/14 08:12:42;;;;;;;4.90;3.47;;;;;;;1.70;100.00;100978.50;5046907;28;20037;-47
2024/01/14 08:15:09;;;;;;;6.55;3.80;;;;;;;1.66;100.00;100982.91;5047461;28;20056;-51
2024/01/14 08:17:37;;;;;;;7.43;3.88;;;;;;;1.65;100.00;100975.78;5044245;28;20499;-48
2024/01/14 08:20:05;;;;;;;7.80;4.32;;;;;;;1.66;100.00;100978.25;5047026;28;20056;-51
2024/01/14 08:22:33;;;;;;;5.53;4.50;;;;;;;1.65;100.00;100976.63;5033827;28;20526;-48
2024/01/14 08:25:01;;;;;;;8.43;3.70;;;;;;;1.68;100.00;100986.16;5046654;28;20056;-48
2024/01/14 08:27:30;;;;;;;6.88;4.00;;;;;;;1.72;100.00;100977.13;5045826;28;20037;-46
2024/01/14 08:29:57;;;;;;;9.00;3.88;;;;;;;1.77;100.00;100977.09;5045781;28;20048;-50
2024/01/14 08:32:25;;;;;;;10.10;4.32;;;;;;;1.81;100.00;100975.44;5044885;28;20044;-49
2024/01/14 08:34:52;;;;;;;5.90;4.20;;;;;;;1.85;100.00;100970.25;5040843;28;20053;-49
2024/01/14 08:37:19;;;;;;;9.10;4.03;;;;;;;1.89;100.00;100970.47;5039389;28;20061;-49
2024/01/14 08:39:48;;;;;;;7.10;4.15;;;;;;;1.91;100.00;100963.63;5041436;28;20515;-46
2024/01/14 08:42:15;;;;;;;7.18;4.05;;;;;;;1.94;100.00;100968.53;5039389;28;20788;-52
2024/01/14 08:44:43;;;;;;;7.10;4.15;;;;;;;1.98;100.00;100966.06;5042566;28;20049;-48
2024/01/14 08:47:10;;;;;;;6.70;4.15;;;;;;;2.02;100.00;100967.13;5047908;28;20515;-49
2024/01/14 08:49:39;;;;;;;9.20;4.60;;;;;;;2.05;100.00;100969.28;5045935;28;20065;-52
2024/01/14 08:52:08;;;;;;;5.57;3.38;;;;;;;2.02;100.00;100972.56;5026436;28;20499;-49
2024/01/14 08:54:36;;;;;;;5.03;4.07;;;;;;;1.99;100.00;100964.94;5043550;28;20057;-49
2024/01/14 08:57:03;;;;;;;11.73;4.07;;;;;;;1.97;100.00;100962.50;5039507;28;20407;-52
2024/01/14 08:59:33;;;;;;;5.72;3.75;;;;;;;1.96;100.00;100971.78;5024295;28;20064;-52
2024/01/14 09:02:01;;;;;;;6.10;3.50;;;;;;;1.95;100.00;100969.34;5043119;28;20053;-51
2024/01/14 09:04:28;;;;;;;7.35;3.95;;;;;;;1.96;100.00;100965.53;5039123;28;20045;-50
2024/01/14 09:06:55;;;;;;;6.72;4.20;;;;;;;1.98;100.00;100971.53;5024034;28;20399;-53
2024/01/14 09:09:23;;;;;;;6.13;4.55;;;;;;;2.02;100.00;100975.31;5039745;28;20045;-52
2024/01/14 09:11:51;;;;;;;6.60;3.83;;;;;;;2.08;100.00;100975.00;5041917;28;20060;-51
2024/01/14 09:14:18;;;;;;;10.60;4.10;;;;;;;2.10;100.00;100982.91;5034735;28;20049;-51
2024/01/14 09:16:48;;;;;;;6.28;4.38;;;;;;;2.11;100.00;100984.56;5042619;28;20057;-52
2024/01/14 09:19:15;;;;;;;11.20;5.22;;;;;;;2.12;100.00;100986.19;5019607;28;20394;-53
2024/01/14 09:21:43;;;;;;;8.88;4.90;;;;;;;2.13;100.00;100983.16;5035812;28;20423;-52
2024/01/14 09:24:10;;;;;;;7.38;4.97;;;;;;;2.14;100.00;100989.44;5044985;28;20060;-48
2024/01/14 09:26:38;;;;;;;9.13;4.10;;;;;;;2.12;100.00;100986.19;5039756;28;20067;-50
2024/01/14 09:29:05;;;;;;;6.55;4.68;;;;;;;2.10;100.00;100982.91;5025509;28;20049;-52
2024/01/14 09:31:32;;;;;;;12.63;5.22;;;;;;;2.11;100.00;100985.38;5035619;28;20053;-52
2024/01/14 09:34:00;;;;;;;12.57;5.80;;;;;;;2.15;100.00;100985.59;5041464;28;20052;-53
2024/01/14 09:36:30;;;;;;;14.32;5.90;;;;;;;2.15;100.00;100985.59;5044006;28;20056;-50
2024/01/14 09:38:58;;;;;;;10.27;5.60;;;;;;;2.13;100.00;100987.81;5022347;28;20534;-53
2024/01/14 09:41:55;;;;;;;9.85;6.80;;;;;;;2.16;100.00;100987.25;5020165;28;20068;-46
2024/01/14 09:44:22;;;;;;;14.27;5.40;;;;;;;2.21;100.00;100973.56;5006841;28;20053;-52
2024/01/14 09:46:51;;;;;;;11.45;5.47;;;;;;;2.24;100.00;100973.81;5045010;28;20533;-52
2024/01/14 09:49:20;;;;;;;8.38;4.30;;;;;;;2.27;100.00;100972.41;5040959;28;20052;-51
2024/01/14 09:51:49;;;;;;;6.78;4.75;;;;;;;2.28;100.00;100968.56;5039194;28;20056;-46
2024/01/14 09:54:17;;;;;;;5.90;3.35;;;;;;;2.27;100.00;100973.25;5037275;28;20554;-51
2024/01/14 09:56:48;;;;;;;9.68;4.28;;;;;;;2.27;100.00;100977.88;5039882;28;20140;-53
2024/01/14 09:59:17;;;;;;;6.50;3.78;;;;;;;2.29;100.00;100972.94;5045726;28;20041;-53
2024/01/14 10:01:45;;;;;;;8.15;4.05;;;;;;;2.33;100.00;100976.75;5047948;28;20049;-50
2024/01/14 10:04:16;;;;;;;6.22;3.65;;;;;;;2.39;100.00;100970.13;5051189;28;20055;-49
2024/01/14 10:06:45;;;;;;;8.00;4.25;;;;;;;2.44;100.00;100961.88;5049993;28;20045;-52
2024/01/14 10:09:12;;;;;;;9.65;3.78;;;;;;;2.50;100.00;100962.66;5044668;28;20056;-52
2024/01/14 10:11:41;;;;;;;6.15;4.05;;;;;;;2.54;100.00;100966.47;5050183;28;20162;-52
2024/01/14 10:14:10;;;;;;;6.18;3.97;;;;;;;2.54;100.00;100961.81;5049867;28;20055;-52
2024/01/14 10:16:40;;;;;;;6.15;3.75;;;;;;;2.61;100.00;100972.41;5050092;28;20510;-50
2024/01/14 10:19:22;;;;;;;9.32;4.88;;;;;;;2.72;100.00;100966.56;5038041;28;20045;-52
2024/01/14 10:21:52;;;;;;;7.68;4.75;;;;;;;2.80;100.00;100957.75;5049630;28;20422;-51
2024/01/14 10:24:40;;;;;;;6.68;3.97;;;;;;;2.89;100.00;100964.22;5040135;28;20677;-53
2024/01/14 10:27:10;;;;;;;6.97;4.22;;;;;;;2.97;100.00;100955.38;5030465;28;20053;-52
2024/01/14 10:29:37;;;;;;;8.90;3.63;;;;;;;3.04;100.00;100966.78;5040780;28;20053;-51
2024/01/14 10:32:05;;;;;;;6.15;3.83;;;;;;;3.11;100.00;100971.09;5049468;28;20045;-51
2024/01/14 10:34:32;;;;;;;7.18;3.28;;;;;;;3.21;100.00;100973.72;5049561;28;20079;-54
2024/01/14 10:37:01;;;;;;;8.30;3.80;;;;;;;3.30;100.00;100977.44;5049399;28;20041;-49
2024/01/14 10:39:32;;;;;;;4.50;3.08;;;;;;;3.31;100.00;100971.66;5049648;28;20048;-50
2024/01/14 10:42:01;;;;;;;5.47;3.30;;;;;;;3.31;100.00;100970.88;5043053;28;20045;-52
2024/01/14 10:44:30;;;;;;;7.95;3.78;;;;;;;3.31;100.00;100976.34;5042989;28;20535;-52
2024/01/14 10:47:03;;;;;;;6.40;4.05;;;;;;;3.34;100.00;100975.75;5047723;28;20057;-50
2024/01/14 10:49:34;;;;;;;6.38;3.85;;;;;;;3.39;100.00;100978.44;5041542;28;20041;-46
2024/01/14 10:52:09;;;;;;;8.00;3.92;;;;;;;3.48;100.00;100987.63;5045132;28;20138;-48
2024/01/14 10:54:49;;;;;;;6.35;3.58;;;;;;;3.54;100.00;100981.00;5039679;28;20510;-49
2024/01/14 10:57:26;;;;;;;9.35;4.07;;;;;;;3.60;100.00;100979.84;5040142;28;20049;-51
2024/01/14 10:59:57;;;;;;;9.50;4.00;;;;;;;3.71;100.00;100975.03;5044087;28;20131;-49
2024/01/14 11:02:28;;;;;;;10.75;6.20;;;;;;;3.80;100.00;100976.81;5035677;28;20515;-55
2024/01/14 11:04:55;;;;;;;15.30;6.10;;;;;;;3.82;100.00;100977.31;5037534;28;20043;-47
2024/01/14 11:07:26;;;;;;;8.43;4.97;;;;;;;3.79;100.00;100972.44;5043331;28;20052;-53
2024/01/14 11:09:55;;;;;;;7.93;4.78;;;;;;;3.73;100.00;100968.16;5048271;28;20485;-45
2024/01/14 11:12:27;;;;;;;7.05;3.83;;;;;;;3.68;100.00;100969.03;5048441;28;20414;-52
2024/01/14 11:15:08;;;;;;;6.40;3.35;;;;;;;3.61;100.00;100973.22;5047323;28;20048;-53
2024/01/14 11:18:06;;;;;;;7.45;3.45;;;;;;;3.56;100.00;100978.78;5048456;28;20060;-49
2024/01/14 11:20:37;;;;;;;7.35;3.70;;;;;;;3.45;100.00;100977.25;5015481;28;20053;-49
2024/01/14 11:23:24;;;;;;;10.10;5.70;;;;;;;3.40;100.00;100964.47;5047841;28;20057;-48
2024/01/14 11:25:55;;;;;;;10.88;5.00;;;;;;;3.38;100.00;100974.91;5047400;28;20049;-46
2024/01/14 11:28:22;;;;;;;11.18;5.38;;;;;;;3.37;100.00;100969.69;5038936;28;20651;-50
2024/01/14 11:30:50;;;;;;;11.25;5.93;;;;;;;3.41;100.00;100965.28;5044329;28;20049;-48